Terminal Aerodrome Forecast
Issued by NWS Sioux Falls, SD

Home | Current Version | Previous Version | Graphics & Text | Print | Product List | Glossary On
Versions: 1 2 3 4 5 6 7 8 9 10 11 12 13 14 15 16 17 18 19 20 21 22 23 24 25 26 27 28 29 30 31 32 33 34 35 36 37 38 39 40 41 42 43 44 45 46 47 48 49 50
000
FTUS43 KFSD 251123
TAFSUX
TAF
KSUX 251123Z 2512/2612 VRB03KT 1/4SM FG VV002
      TEMPO 2512/2514 3/4SM BR BKN004
     FM251430 19005KT 1SM BR OVC005
     FM251530 18006KT 3SM BR OVC008
     FM251700 18008KT P6SM OVC025
      TEMPO 2522/2601 6SM TSRA BKN030CB
     FM260300 36005KT P6SM SCT035 BKN080=

USA.gov is the U.S. government's official web portal to all federal, state and local government web resources and services.